createdAt,value
2022-12-23T00:01:38.177Z,99767.03
2022-12-23T00:04:05.509Z,99770.50
2022-12-23T00:06:32.819Z,99767.56
2022-12-23T00:09:00.423Z,99759.66
2022-12-23T00:11:28.618Z,99761.63
2022-12-23T00:14:20.449Z,99773.25
2022-12-23T00:16:49.398Z,99769.84
2022-12-23T00:19:16.724Z,99774.75
2022-12-23T00:21:43.936Z,99775.44
2022-12-23T00:24:12.067Z,99763.44
2022-12-23T00:26:39.437Z,99763.00
2022-12-23T00:29:07.291Z,99763.59
2022-12-23T00:31:34.549Z,99764.44
2022-12-23T00:34:01.822Z,99759.66
2022-12-23T00:36:29.979Z,99762.19
2022-12-23T00:39:16.333Z,99759.38
2022-12-23T00:42:02.385Z,99759.66
2022-12-23T00:44:29.805Z,99762.75
2022-12-23T00:46:57.040Z,99754.94
2022-12-23T00:49:42.677Z,99753.88
2022-12-23T00:52:12.028Z,99757.34
2022-12-23T00:54:39.385Z,99757.38
2022-12-23T00:57:06.766Z,99752.25
2022-12-23T00:59:34.322Z,99757.13
2022-12-23T01:02:20.444Z,99749.34
2022-12-23T01:05:06.432Z,99754.44
2022-12-23T01:07:33.816Z,99754.75
2022-12-23T01:10:01.206Z,99756.94
2022-12-23T01:12:28.717Z,99763.88
2022-12-23T01:14:55.949Z,99755.84
2022-12-23T01:17:23.267Z,99754.94
2022-12-23T01:19:51.520Z,99753.94
2022-12-23T01:22:18.883Z,99754.44
2022-12-23T01:24:46.110Z,99751.94
2022-12-23T01:27:13.337Z,99760.66
2022-12-23T01:29:40.655Z,99758.03
2022-12-23T01:32:08.164Z,99762.66
2022-12-23T01:34:37.383Z,99763.34
2022-12-23T01:37:05.159Z,99755.75
2022-12-23T01:39:32.759Z,99766.16
2022-12-23T01:42:18.663Z,99766.06
2022-12-23T01:44:49.211Z,99764.59
2022-12-23T01:47:37.063Z,99760.69
2022-12-23T01:50:04.417Z,99770.81
2022-12-23T01:52:34.026Z,99765.78
2022-12-23T01:55:01.545Z,99767.94
2022-12-23T01:57:29.616Z,99782.88
2022-12-23T02:00:15.199Z,99777.69
2022-12-23T02:03:04.362Z,99783.34
2022-12-23T02:05:32.123Z,99766.06
2022-12-23T02:08:17.698Z,99777.59
2022-12-23T02:11:17.494Z,99769.84
2022-12-23T02:14:04.644Z,99779.28
2022-12-23T02:16:34.521Z,99779.47
2022-12-23T02:19:10.031Z,99764.25
2022-12-23T02:21:40.299Z,99766.66
2022-12-23T02:24:22.974Z,99770.47
2022-12-23T02:26:56.567Z,99778.28
2022-12-23T02:29:42.553Z,99773.19
2022-12-23T02:32:12.939Z,99772.97
2022-12-23T02:34:54.252Z,99779.88
2022-12-23T02:37:21.606Z,99777.38
2022-12-23T02:39:56.649Z,99790.50
2022-12-23T02:42:26.967Z,99791.41
2022-12-23T02:45:01.536Z,99792.19
2022-12-23T02:47:32.837Z,99788.13
2022-12-23T02:50:03.796Z,99794.19
2022-12-23T02:52:32.686Z,99788.25
2022-12-23T02:55:09.515Z,99789.13
2022-12-23T02:57:39.341Z,99787.91
2022-12-23T03:00:07.775Z,99788.41
2022-12-23T03:02:37.551Z,99795.50
2022-12-23T03:05:05.619Z,99799.50
2022-12-23T03:07:38.890Z,99803.63
2022-12-23T03:10:22.561Z,99796.22
2022-12-23T03:12:56.649Z,99801.94
2022-12-23T03:15:23.989Z,99806.25
2022-12-23T03:17:54.165Z,99802.28
2022-12-23T03:20:27.145Z,99794.00
2022-12-23T03:22:54.419Z,99785.19
2022-12-23T03:25:32.943Z,99791.81
2022-12-23T03:28:05.379Z,99790.94
2022-12-23T03:30:34.338Z,99788.25
2022-12-23T03:33:08.005Z,99788.69
2022-12-23T03:35:39.231Z,99786.59
2022-12-23T03:38:07.460Z,99786.06
2022-12-23T03:40:48.191Z,99783.28
2022-12-23T03:43:20.964Z,99782.94
2022-12-23T03:45:51.104Z,99778.59
2022-12-23T03:48:29.578Z,99779.09
2022-12-23T03:50:59.518Z,99781.56
2022-12-23T03:53:36.297Z,99779.59
2022-12-23T03:56:12.312Z,99779.28
2022-12-23T03:58:39.631Z,99779.47
2022-12-23T04:01:17.995Z,99775.78
2022-12-23T04:04:00.531Z,99769.19
2022-12-23T04:06:31.819Z,99762.44
2022-12-23T04:08:59.395Z,99764.06
2022-12-23T04:11:26.637Z,99763.59
2022-12-23T04:13:54.193Z,99764.97
2022-12-23T04:16:21.648Z,99768.84
2022-12-23T04:18:49.081Z,99747.56
2022-12-23T04:21:16.332Z,99769.38
2022-12-23T04:23:43.577Z,99762.44
2022-12-23T04:26:10.746Z,99769.47
2022-12-23T04:28:38.262Z,99770.38
2022-12-23T04:31:05.536Z,99768.56
2022-12-23T04:33:32.966Z,99768.50
2022-12-23T04:36:01.039Z,99760.34
2022-12-23T04:38:28.391Z,99766.84
2022-12-23T04:40:55.592Z,99761.84
2022-12-23T04:43:22.872Z,99763.94
2022-12-23T04:45:51.360Z,99770.47
2022-12-23T04:48:18.775Z,99763.69
2022-12-23T04:50:46.041Z,99766.66
2022-12-23T04:53:13.458Z,99756.59
2022-12-23T04:55:40.650Z,99761.31
2022-12-23T04:58:08.137Z,99749.84
2022-12-23T05:00:39.457Z,99758.66
2022-12-23T05:03:07.482Z,99755.16
2022-12-23T05:05:34.832Z,99759.16
2022-12-23T05:08:02.890Z,99758.03
2022-12-23T05:10:30.142Z,99761.34
2022-12-23T05:12:58.430Z,99751.63
2022-12-23T05:15:25.914Z,99752.94
2022-12-23T05:17:53.237Z,99758.66
2022-12-23T05:20:20.539Z,99746.00
2022-12-23T05:22:47.894Z,99760.16
2022-12-23T05:25:15.135Z,99752.59
2022-12-23T05:27:42.404Z,99757.38
2022-12-23T05:30:10.373Z,99759.06
2022-12-23T05:32:39.461Z,99758.84
2022-12-23T05:35:07.013Z,99755.75
2022-12-23T05:37:34.312Z,99757.97
2022-12-23T05:40:01.659Z,99752.50
2022-12-23T05:42:30.068Z,99765.41
2022-12-23T05:44:57.370Z,99755.84
2022-12-23T05:47:24.633Z,99759.66
2022-12-23T05:49:51.829Z,99757.94
2022-12-23T05:52:19.061Z,99756.53
2022-12-23T05:54:46.422Z,99761.69
2022-12-23T05:57:13.611Z,99760.38
2022-12-23T05:59:41.038Z,99757.66
2022-12-23T06:02:08.703Z,99754.28
2022-12-23T06:04:36.201Z,99757.75
2022-12-23T06:07:03.468Z,99761.56
2022-12-23T06:09:30.947Z,99763.78
2022-12-23T06:11:58.168Z,99770.81
2022-12-23T06:14:29.003Z,99771.28
2022-12-23T06:16:57.061Z,99774.38
2022-12-23T06:19:24.821Z,99777.09
2022-12-23T06:21:52.266Z,99770.88
2022-12-23T06:24:19.506Z,99765.63
2022-12-23T06:26:48.073Z,99776.22
2022-12-23T06:29:16.969Z,99772.19
2022-12-23T06:31:44.888Z,99774.19
2022-12-23T06:34:12.207Z,99778.31
2022-12-23T06:36:39.353Z,99787.22
2022-12-23T06:39:07.063Z,99784.41
2022-12-23T06:41:34.262Z,99779.88
2022-12-23T06:44:01.541Z,99784.59
2022-12-23T06:46:28.841Z,99789.94
2022-12-23T06:48:56.295Z,99800.53
2022-12-23T06:51:23.490Z,99792.78
2022-12-23T06:53:50.824Z,99790.47
2022-12-23T06:56:18.645Z,99798.97
2022-12-23T06:58:46.042Z,99801.13
2022-12-23T07:01:13.497Z,99798.38
2022-12-23T07:03:41.106Z,99813.28
2022-12-23T07:06:08.584Z,99806.25
2022-12-23T07:08:35.882Z,99804.31
2022-12-23T07:11:03.855Z,99811.47
2022-12-23T07:13:32.039Z,99796.19
2022-12-23T07:15:59.648Z,99807.31
2022-12-23T07:18:27.171Z,99799.28
2022-12-23T07:20:54.413Z,99800.56
2022-12-23T07:23:21.751Z,99803.16
2022-12-23T07:25:48.943Z,99801.75
2022-12-23T07:28:16.165Z,99810.50
2022-12-23T07:30:43.572Z,99808.31
2022-12-23T07:33:10.996Z,99809.22
2022-12-23T07:35:38.332Z,99808.34
2022-12-23T07:38:05.597Z,99799.44
2022-12-23T07:40:32.892Z,99810.03
2022-12-23T07:43:00.305Z,99810.34
2022-12-23T07:45:28.510Z,99803.03
2022-12-23T07:47:57.013Z,99809.66
2022-12-23T07:50:24.698Z,99801.06
2022-12-23T07:52:52.375Z,99808.56
2022-12-23T07:55:20.377Z,99806.88
2022-12-23T07:57:48.241Z,99812.44
2022-12-23T08:00:15.557Z,99807.78
2022-12-23T08:02:43.125Z,99807.56
2022-12-23T08:05:10.982Z,99807.16
2022-12-23T08:07:38.663Z,99811.81
2022-12-23T08:10:06.893Z,99800.97
2022-12-23T08:12:34.349Z,99801.19
2022-12-23T08:15:01.583Z,99804.44
2022-12-23T08:17:29.815Z,99811.28
2022-12-23T08:19:57.376Z,99814.97
2022-12-23T08:22:25.033Z,99806.16
2022-12-23T08:24:52.778Z,99800.81
2022-12-23T08:27:20.168Z,99799.75
2022-12-23T08:29:47.551Z,99807.31
2022-12-23T08:32:15.155Z,99802.38
2022-12-23T08:34:42.367Z,99801.91
2022-12-23T08:37:09.755Z,99791.84
2022-12-23T08:39:37.011Z,99804.25
2022-12-23T08:42:04.427Z,99804.53
2022-12-23T08:44:32.786Z,99807.19
2022-12-23T08:47:00.071Z,99803.16
2022-12-23T08:49:27.415Z,99805.81
2022-12-23T08:51:55.031Z,99804.63
2022-12-23T08:54:23.865Z,99804.25
2022-12-23T08:56:51.359Z,99808.88
2022-12-23T08:59:19.911Z,99805.38
2022-12-23T09:01:48.382Z,99805.50
2022-12-23T09:04:15.817Z,99802.09
2022-12-23T09:06:43.608Z,99799.75
2022-12-23T09:09:15.580Z,99800.97
2022-12-23T09:11:43.181Z,99796.59
2022-12-23T09:14:11.359Z,99799.75
2022-12-23T09:16:38.678Z,99814.63
2022-12-23T09:19:06.067Z,99816.78
2022-12-23T09:21:33.616Z,99809.22
2022-12-23T09:24:00.877Z,99810.81
2022-12-23T09:26:30.232Z,99801.16
2022-12-23T09:28:57.915Z,99802.81
2022-12-23T09:31:29.272Z,99795.22
2022-12-23T09:34:01.752Z,99794.44
2022-12-23T09:36:29.952Z,99803.31
2022-12-23T09:38:58.072Z,99801.81
2022-12-23T09:41:29.163Z,99795.25
2022-12-23T09:44:02.292Z,99801.69
2022-12-23T09:46:34.288Z,99798.91
2022-12-23T09:49:09.298Z,99802.63
2022-12-23T09:51:36.595Z,99810.59
2022-12-23T09:54:09.646Z,99807.41
2022-12-23T09:56:52.109Z,99806.72
2022-12-23T09:59:28.175Z,99801.44
2022-12-23T10:02:25.039Z,99809.16
2022-12-23T10:05:10.926Z,99810.56
2022-12-23T10:07:38.444Z,99805.56
2022-12-23T10:10:12.160Z,99804.47
2022-12-23T10:12:42.169Z,99800.81
2022-12-23T10:15:27.932Z,99814.91
2022-12-23T10:17:57.158Z,99810.13
2022-12-23T10:20:30.042Z,99805.66
2022-12-23T10:22:58.242Z,99809.34
2022-12-23T10:25:33.074Z,99806.34
2022-12-23T10:28:00.517Z,99804.06
2022-12-23T10:30:57.358Z,99806.84
2022-12-23T10:33:34.341Z,99800.56
2022-12-23T10:36:05.163Z,99805.03
2022-12-23T10:38:51.350Z,99801.22
2022-12-23T10:41:21.295Z,99801.75
2022-12-23T10:44:00.323Z,99796.19
2022-12-23T10:46:36.838Z,99803.03
2022-12-23T10:49:20.429Z,99798.53
2022-12-23T10:51:52.481Z,99810.44
2022-12-23T10:54:29.329Z,99810.50
2022-12-23T10:56:56.658Z,99802.78
2022-12-23T10:59:31.357Z,99803.84
2022-12-23T11:02:05.705Z,99808.72
2022-12-23T11:04:35.375Z,99797.28
2022-12-23T11:07:34.412Z,99798.53
2022-12-23T11:09:50.595Z,99805.41
2022-12-23T11:12:22.282Z,99804.53
2022-12-23T11:14:54.663Z,99803.31
2022-12-23T11:17:23.319Z,99797.06
2022-12-23T11:20:05.627Z,99797.84
2022-12-23T11:22:32.927Z,99795.25
2022-12-23T11:25:18.146Z,99799.25
2022-12-23T11:27:46.003Z,99796.28
2022-12-23T11:30:22.383Z,99802.63
2022-12-23T11:32:50.560Z,99807.31
2022-12-23T11:35:25.800Z,99801.81
2022-12-23T11:37:53.263Z,99802.81
2022-12-23T11:40:31.230Z,99796.19
2022-12-23T11:43:06.160Z,99795.91
2022-12-23T11:45:35.574Z,99799.13
2022-12-23T11:48:04.007Z,99795.41
2022-12-23T11:50:33.039Z,99797.59
2022-12-23T11:53:27.742Z,99796.44
2022-12-23T11:55:58.351Z,99782.88
2022-12-23T11:58:26.207Z,99795.56
2022-12-23T12:00:57.995Z,99788.78
2022-12-23T12:03:35.589Z,99798.97
2022-12-23T12:06:04.449Z,99796.13
2022-12-23T12:08:37.114Z,99797.28
2022-12-23T12:11:15.042Z,99796.13
2022-12-23T12:13:43.649Z,99790.22
2022-12-23T12:16:23.234Z,99790.53
2022-12-23T12:18:55.451Z,99808.06
2022-12-23T12:21:25.403Z,99801.13
2022-12-23T12:24:17.222Z,99809.56
2022-12-23T12:26:51.342Z,99801.91
2022-12-23T12:29:18.850Z,99803.69
2022-12-23T12:31:48.466Z,99797.25
2022-12-23T12:34:21.796Z,99795.03
2022-12-23T12:37:04.151Z,99802.38
2022-12-23T12:39:42.713Z,99803.69
2022-12-23T12:42:15.952Z,99803.94
2022-12-23T12:44:43.208Z,99800.22
2022-12-23T12:47:44.584Z,99795.28
2022-12-23T12:50:16.281Z,99808.56
2022-12-23T12:52:44.030Z,99805.94
2022-12-23T12:55:18.698Z,99813.84
2022-12-23T12:57:46.194Z,99807.16
2022-12-23T13:00:17.873Z,99809.81
2022-12-23T13:02:45.471Z,99805.94
2022-12-23T13:05:28.681Z,99806.53
2022-12-23T13:08:19.315Z,99801.91
2022-12-23T13:10:49.309Z,99817.53
2022-12-23T13:13:35.517Z,99818.16
2022-12-23T13:16:02.773Z,99816.09
2022-12-23T13:18:36.144Z,99815.31
2022-12-23T13:21:24.315Z,99808.50
2022-12-23T13:24:10.562Z,99811.16
2022-12-23T13:26:40.086Z,99809.09
2022-12-23T13:29:39.564Z,99806.94
2022-12-23T13:32:12.697Z,99819.41
2022-12-23T13:34:52.252Z,99804.31
2022-12-23T13:37:35.004Z,99810.66
2022-12-23T13:40:11.420Z,99811.28
2022-12-23T13:42:44.204Z,99803.81
2022-12-23T13:45:16.643Z,99808.50
2022-12-23T13:48:10.831Z,99798.19
2022-12-23T13:50:45.575Z,99799.44
2022-12-23T13:53:31.421Z,99796.50
2022-12-23T13:56:07.744Z,99800.53
2022-12-23T13:58:35.295Z,99803.81
2022-12-23T14:01:08.514Z,99801.72
2022-12-23T14:03:37.049Z,99805.94
2022-12-23T14:06:22.372Z,99810.13
2022-12-23T14:08:50.752Z,99811.66
2022-12-23T14:11:18.067Z,99813.22
2022-12-23T14:13:58.525Z,99816.16
2022-12-23T14:16:25.904Z,99811.50
2022-12-23T14:19:01.457Z,99807.66
2022-12-23T14:21:50.727Z,99820.19
2022-12-23T14:24:33.281Z,99822.56
2022-12-23T14:27:19.382Z,99828.00
2022-12-23T14:29:46.975Z,99836.78
2022-12-23T14:32:40.593Z,99831.19
2022-12-23T14:35:17.980Z,99829.31
2022-12-23T14:38:04.010Z,99833.59
2022-12-23T14:40:37.150Z,99832.88
2022-12-23T14:43:22.859Z,99834.59
2022-12-23T14:45:51.454Z,99845.41
2022-12-23T14:48:34.124Z,99846.38
2022-12-23T14:51:10.305Z,99852.75
2022-12-23T14:53:57.423Z,99862.88
2022-12-23T14:56:27.787Z,99855.47
2022-12-23T14:59:07.384Z,99855.47
2022-12-23T15:01:37.466Z,99858.50
2022-12-23T15:04:14.032Z,99865.28
2022-12-23T15:07:07.534Z,99867.44
2022-12-23T15:09:44.581Z,99871.69
2022-12-23T15:12:18.758Z,99874.09
2022-12-23T15:14:48.983Z,99870.16
2022-12-23T15:17:27.715Z,99870.28
2022-12-23T15:20:03.413Z,99870.28
2022-12-23T15:22:32.600Z,99872.53
2022-12-23T15:25:00.074Z,99875.47
2022-12-23T15:27:29.719Z,99861.97
2022-12-23T15:29:57.990Z,99852.72
2022-12-23T15:32:25.700Z,99870.00
2022-12-23T15:34:55.068Z,99867.16
2022-12-23T15:37:26.730Z,99870.38
2022-12-23T15:40:03.450Z,99865.38
2022-12-23T15:42:32.195Z,99874.25
2022-12-23T15:44:59.708Z,99875.41
2022-12-23T15:47:29.219Z,99867.13
2022-12-23T15:49:58.785Z,99873.56
2022-12-23T15:52:27.417Z,99868.00
2022-12-23T15:55:01.837Z,99871.09
2022-12-23T15:57:30.282Z,99872.91
2022-12-23T15:59:58.589Z,99872.38
2022-12-23T16:05:32.995Z,99872.78
2022-12-23T16:08:28.669Z,99881.44
2022-12-23T16:11:15.836Z,99877.50
2022-12-23T16:13:58.684Z,99885.44
2022-12-23T16:16:32.340Z,99890.78
2022-12-23T16:19:00.087Z,99879.13
2022-12-23T16:21:32.491Z,99883.84
2022-12-23T16:24:00.443Z,99885.94
2022-12-23T16:26:27.904Z,99895.28
2022-12-23T16:28:58.157Z,99893.84
2022-12-23T16:31:25.843Z,99898.41
2022-12-23T16:33:59.941Z,99899.34
2022-12-23T16:36:27.325Z,99899.34
2022-12-23T16:39:06.904Z,99893.41
2022-12-23T16:41:34.617Z,99893.91
2022-12-23T16:44:02.118Z,99891.66
2022-12-23T16:46:34.175Z,99901.78
2022-12-23T16:49:05.009Z,99904.47
2022-12-23T16:51:34.264Z,99900.16
2022-12-23T16:54:01.733Z,99898.66
2022-12-23T16:56:38.118Z,99897.78
2022-12-23T16:59:05.469Z,99895.53
2022-12-23T17:01:55.515Z,99904.38
2022-12-23T17:04:26.878Z,99900.38
2022-12-23T17:06:54.196Z,99899.56
2022-12-23T17:09:21.552Z,99910.41
2022-12-23T17:11:50.744Z,99902.47
2022-12-23T17:14:19.411Z,99907.75
2022-12-23T17:16:46.954Z,99912.09
2022-12-23T17:19:14.436Z,99921.72
2022-12-23T17:21:42.730Z,99922.31
2022-12-23T17:24:17.280Z,99920.91
2022-12-23T17:26:44.665Z,99924.13
2022-12-23T17:29:12.568Z,99918.59
2022-12-23T17:31:41.160Z,99920.53
2022-12-23T17:34:14.286Z,99917.91
2022-12-23T17:36:49.232Z,99923.03
2022-12-23T17:39:17.299Z,99919.91
2022-12-23T17:41:44.644Z,99918.81
2022-12-23T17:44:14.067Z,99920.31
2022-12-23T17:46:41.454Z,99925.63
2022-12-23T17:49:09.127Z,99915.91
2022-12-23T17:51:37.713Z,99929.59
2022-12-23T17:54:06.504Z,99933.38
2022-12-23T17:56:33.796Z,99941.22
2022-12-23T17:59:01.091Z,99936.06
2022-12-23T18:01:32.780Z,99937.84
2022-12-23T18:04:00.480Z,99943.47
2022-12-23T18:06:28.722Z,99943.22
2022-12-23T18:08:59.003Z,99949.97
2022-12-23T18:11:39.102Z,99948.63
2022-12-23T18:14:09.296Z,99946.44
2022-12-23T18:16:36.557Z,99946.34
2022-12-23T18:19:03.783Z,99956.44
2022-12-23T18:21:31.418Z,99957.72
2022-12-23T18:23:59.724Z,99962.16
2022-12-23T18:26:26.982Z,99963.50
2022-12-23T18:28:54.802Z,99973.75
2022-12-23T18:31:24.034Z,99983.16
2022-12-23T18:33:51.752Z,99980.34
2022-12-23T18:36:23.248Z,99981.47
2022-12-23T18:38:52.197Z,99985.78
2022-12-23T18:41:19.916Z,99988.91
2022-12-23T18:43:47.525Z,99986.59
2022-12-23T18:46:14.809Z,99994.00
2022-12-23T18:48:42.217Z,99989.19
2022-12-23T18:51:14.715Z,100005.19
2022-12-23T18:53:43.586Z,100002.63
2022-12-23T18:56:14.824Z,100005.34
2022-12-23T18:58:42.581Z,100016.53
2022-12-23T19:01:13.620Z,100016.84
2022-12-23T19:03:41.346Z,100017.44
2022-12-23T19:06:09.370Z,100028.50
2022-12-23T19:08:37.463Z,100028.53
2022-12-23T19:11:18.750Z,100031.34
2022-12-23T19:13:46.248Z,100037.03
2022-12-23T19:16:18.383Z,100037.66
2022-12-23T19:18:46.617Z,100031.91
2022-12-23T19:21:14.188Z,100040.72
2022-12-23T19:23:42.206Z,100047.25
2022-12-23T19:26:10.343Z,100046.19
2022-12-23T19:28:38.367Z,100052.75
2022-12-23T19:31:09.873Z,100053.31
2022-12-23T19:33:40.696Z,100055.72
2022-12-23T19:36:15.352Z,100055.34
2022-12-23T19:38:42.796Z,100056.16
2022-12-23T19:41:10.151Z,100061.84
2022-12-23T19:43:38.285Z,100067.91
2022-12-23T19:46:07.634Z,100072.81
2022-12-23T19:48:35.422Z,100072.59
2022-12-23T19:51:04.503Z,100074.31
2022-12-23T19:53:31.788Z,100084.03
2022-12-23T19:56:07.083Z,100084.91
2022-12-23T19:58:36.033Z,100083.78
2022-12-23T20:01:24.042Z,100092.31
2022-12-23T20:03:52.245Z,100097.59
2022-12-23T20:06:22.984Z,100092.91
2022-12-23T20:08:54.915Z,100100.88
2022-12-23T20:11:25.795Z,100103.13
2022-12-23T20:13:53.878Z,100113.66
2022-12-23T20:16:21.631Z,100108.25
2022-12-23T20:18:49.088Z,100126.75
2022-12-23T20:21:16.346Z,100117.66
2022-12-23T20:23:43.604Z,100121.94
2022-12-23T20:26:12.485Z,100112.81
2022-12-23T20:28:40.309Z,100120.81
2022-12-23T20:31:21.107Z,100126.25
2022-12-23T20:33:49.489Z,100130.75
2022-12-23T20:36:18.439Z,100128.47
2022-12-23T20:38:46.423Z,100141.00
2022-12-23T20:41:15.051Z,100137.03
2022-12-23T20:43:43.989Z,100145.31
2022-12-23T20:46:14.501Z,100150.69
2022-12-23T20:48:42.090Z,100147.00
2022-12-23T20:51:14.244Z,100143.03
2022-12-23T20:53:41.722Z,100154.38
2022-12-23T20:56:11.524Z,100151.31
2022-12-23T20:58:57.916Z,100160.13
2022-12-23T21:01:26.873Z,100160.38
2022-12-23T21:03:54.910Z,100151.56
2022-12-23T21:06:22.926Z,100163.53
2022-12-23T21:08:50.264Z,100162.69
2022-12-23T21:11:17.544Z,100168.38
2022-12-23T21:13:47.287Z,100182.59
2022-12-23T21:16:15.148Z,100179.19
2022-12-23T21:18:46.137Z,100182.31
2022-12-23T21:21:13.522Z,100190.44
2022-12-23T21:23:41.780Z,100206.34
2022-12-23T21:26:16.685Z,100201.75
2022-12-23T21:28:46.301Z,100201.41
2022-12-23T21:31:15.481Z,100211.63
2022-12-23T21:33:43.876Z,100211.09
2022-12-23T21:36:16.402Z,100214.22
2022-12-23T21:38:47.780Z,100211.41
2022-12-23T21:41:19.807Z,100221.38
2022-12-23T21:43:47.378Z,100215.06
2022-12-23T21:46:15.860Z,100215.94
2022-12-23T21:48:44.383Z,100221.66
2022-12-23T21:51:39.076Z,100225.66
2022-12-23T21:54:08.187Z,100220.47
2022-12-23T21:56:35.760Z,100231.81
2022-12-23T21:59:04.847Z,100238.16
2022-12-23T22:01:32.768Z,100235.28
2022-12-23T22:04:00.407Z,100243.22
2022-12-23T22:06:32.168Z,100241.81
2022-12-23T22:08:59.960Z,100248.59
2022-12-23T22:11:28.417Z,100247.59
2022-12-23T22:13:56.433Z,100246.59
2022-12-23T22:16:24.937Z,100253.47
2022-12-23T22:18:53.156Z,100249.81
2022-12-23T22:21:21.726Z,100260.00
2022-12-23T22:23:49.634Z,100266.25
2022-12-23T22:26:24.084Z,100255.44
2022-12-23T22:28:54.639Z,100266.50
2022-12-23T22:31:30.800Z,100255.16
2022-12-23T22:33:58.266Z,100263.38
2022-12-23T22:36:25.952Z,100272.75
2022-12-23T22:38:54.565Z,100277.34
2022-12-23T22:41:22.427Z,100280.13
2022-12-23T22:43:49.937Z,100298.28
2022-12-23T22:46:18.517Z,100297.81
2022-12-23T22:48:46.297Z,100302.47
2022-12-23T22:51:17.721Z,100306.03
2022-12-23T22:53:45.705Z,100315.66
2022-12-23T22:56:13.948Z,100314.94
2022-12-23T22:58:41.702Z,100322.06
2022-12-23T23:01:29.333Z,100329.00
2022-12-23T23:03:57.802Z,100327.38
2022-12-23T23:06:26.373Z,100330.09
2022-12-23T23:08:54.127Z,100335.66
2022-12-23T23:11:21.690Z,100336.56
2022-12-23T23:13:49.056Z,100343.50
2022-12-23T23:16:16.349Z,100345.16
2022-12-23T23:18:43.661Z,100348.63
2022-12-23T23:21:12.704Z,100350.19
2022-12-23T23:23:40.103Z,100360.38
2022-12-23T23:26:10.289Z,100368.22
2022-12-23T23:28:38.020Z,100369.84
2022-12-23T23:31:39.646Z,100365.88
2022-12-23T23:33:52.876Z,100369.56
2022-12-23T23:36:20.391Z,100360.47
2022-12-23T23:38:48.022Z,100359.03
2022-12-23T23:41:20.674Z,100362.56
2022-12-23T23:43:50.682Z,100374.06
2022-12-23T23:46:18.093Z,100377.59
2022-12-23T23:48:45.434Z,100375.50
2022-12-23T23:51:12.945Z,100375.25
2022-12-23T23:53:40.791Z,100379.28
2022-12-23T23:56:08.447Z,100380.09
2022-12-23T23:58:36.414Z,100381.19
